NOO324 LFPG-LLBG
Flight info
| Callsign | NOO324 |
|---|---|
| Flight time | 3h 46m |
| Altitude | 35000 |
| Route | BUBLI DCT LUVAL DCT BEGAR DCT TRA DCT GAMSA DCT GEDSO DCT VEKEN DCT GORPA DCT VABEK UL603 OLOTA DCT RUGAS DCT RIKSO UP14 LAVTA UN135 NESIL UT39 TOMBI DCT IDAKU L35 PIKOG L609 ZUKKO |
| Aircraft | B772/H-SDE2E3FGHIJ5LORVWXY/LB1D1 |
Departure
| Time | 2026-05-06 19:54 |
|---|---|
| Airport | Charles de Gaulle International Airport (LFPG) |
Arrival
| Time | 2026-05-06 23:41 |
|---|---|
| Airport | Ben Gurion International Airport (LLBG) |
| Time | Latitude | Longitude | Altitude | Speed | Heading |
|---|---|---|---|---|---|
| 2026-05-06 19:23 | 49.00017 | 2.56241 | 358 ft | 0 kts | 176° |
| 2026-05-06 19:43 | 49.00019 | 2.56241 | 358 ft | 1 kts | 176° |
| 2026-05-06 19:43 | 49.00036 | 2.56239 | 363 ft | 3 kts | 175° |
| 2026-05-06 19:43 | 49.00056 | 2.56237 | 358 ft | 3 kts | 171° |
| 2026-05-06 19:43 | 49.00075 | 2.56230 | 366 ft | 3 kts | 157° |
| 2026-05-06 19:44 | 49.00090 | 2.56217 | 363 ft | 3 kts | 113° |
| 2026-05-06 19:44 | 49.00092 | 2.56205 | 367 ft | 0 kts | 85° |
| 2026-05-06 19:49 | 49.00094 | 2.56232 | 364 ft | 8 kts | 84° |
| 2026-05-06 19:49 | 49.00096 | 2.56258 | 364 ft | 0 kts | 85° |
| 2026-05-06 19:49 | 49.00097 | 2.56286 | 360 ft | 7 kts | 85° |
| 2026-05-06 19:49 | 49.00102 | 2.56368 | 364 ft | 8 kts | 85° |
| 2026-05-06 19:50 | 49.00106 | 2.56451 | 360 ft | 8 kts | 85° |
| 2026-05-06 19:50 | 49.00089 | 2.56545 | 361 ft | 11 kts | 137° |
| 2026-05-06 19:50 | 49.00002 | 2.56578 | 366 ft | 15 kts | 175° |
| 2026-05-06 19:50 | 48.99883 | 2.56589 | 360 ft | 18 kts | 187° |
| 2026-05-06 19:51 | 48.99822 | 2.56435 | 359 ft | 18 kts | 265° |
| 2026-05-06 19:51 | 48.99813 | 2.56263 | 365 ft | 16 kts | 265° |
| 2026-05-06 19:51 | 48.99803 | 2.56094 | 365 ft | 16 kts | 264° |
| 2026-05-06 19:51 | 48.99795 | 2.55923 | 364 ft | 16 kts | 258° |
| 2026-05-06 19:52 | 48.99757 | 2.55762 | 361 ft | 16 kts | 253° |
| 2026-05-06 19:52 | 48.99744 | 2.55591 | 359 ft | 16 kts | 266° |
| 2026-05-06 19:52 | 48.99737 | 2.55471 | 359 ft | 9 kts | 252° |
| 2026-05-06 19:52 | 48.99692 | 2.55446 | 362 ft | 8 kts | 167° |
| 2026-05-06 19:53 | 48.99647 | 2.55483 | 366 ft | 8 kts | 143° |
| 2026-05-06 19:53 | 48.99601 | 2.55547 | 361 ft | 12 kts | 127° |
| 2026-05-06 19:53 | 48.99589 | 2.55623 | 362 ft | 0 kts | 87° |
| 2026-05-06 19:53 | 48.99590 | 2.55643 | 362 ft | 11 kts | 86° |
| 2026-05-06 19:54 | 48.99619 | 2.56180 | 361 ft | 98 kts | 85° |
| 2026-05-06 19:54 | 48.99710 | 2.57666 | 416 ft | 175 kts | 84° |
| 2026-05-06 19:54 | 48.99778 | 2.59712 | 1006 ft | 209 kts | 83° |
| 2026-05-06 19:54 | 48.99900 | 2.61936 | 2121 ft | 209 kts | 82° |
| 2026-05-06 19:55 | 49.00046 | 2.64140 | 2935 ft | 215 kts | 82° |
| 2026-05-06 19:55 | 49.00189 | 2.66550 | 3174 ft | 243 kts | 83° |
| 2026-05-06 19:55 | 49.00333 | 2.69213 | 3721 ft | 256 kts | 83° |
| 2026-05-06 19:55 | 49.00471 | 2.71965 | 4460 ft | 264 kts | 84° |
| 2026-05-06 19:56 | 49.00611 | 2.74732 | 5254 ft | 267 kts | 84° |
| 2026-05-06 19:56 | 49.00747 | 2.77582 | 6042 ft | 270 kts | 87° |
| 2026-05-06 19:56 | 49.00593 | 2.80488 | 6642 ft | 278 kts | 98° |
| 2026-05-06 19:56 | 49.00245 | 2.83381 | 7487 ft | 279 kts | 99° |
| 2026-05-06 19:57 | 48.99891 | 2.86313 | 8189 ft | 284 kts | 99° |
| 2026-05-06 19:57 | 48.99555 | 2.89295 | 8953 ft | 287 kts | 98° |
| 2026-05-06 19:57 | 48.99233 | 2.92277 | 9705 ft | 290 kts | 98° |
| 2026-05-06 19:57 | 48.98909 | 2.95337 | 10308 ft | 298 kts | 98° |
| 2026-05-06 19:58 | 48.98378 | 2.98491 | 10470 ft | 320 kts | 110° |
| 2026-05-06 19:58 | 48.97466 | 3.01732 | 10666 ft | 346 kts | 114° |
| 2026-05-06 19:58 | 48.96395 | 3.05126 | 11176 ft | 360 kts | 115° |
| 2026-05-06 19:58 | 48.95288 | 3.08592 | 11953 ft | 368 kts | 115° |
| 2026-05-06 19:59 | 48.94180 | 3.12109 | 12994 ft | 370 kts | 115° |
| 2026-05-06 19:59 | 48.93090 | 3.15627 | 13954 ft | 375 kts | 114° |
| 2026-05-06 19:59 | 48.91980 | 3.19252 | 14735 ft | 382 kts | 114° |
| 2026-05-06 19:59 | 48.90855 | 3.22956 | 15600 ft | 387 kts | 114° |
| 2026-05-06 20:00 | 48.89721 | 3.26700 | 16497 ft | 392 kts | 115° |
| 2026-05-06 20:00 | 48.88574 | 3.30488 | 17393 ft | 397 kts | 115° |
| 2026-05-06 20:00 | 48.87412 | 3.34320 | 18247 ft | 403 kts | 115° |
| 2026-05-06 20:00 | 48.86228 | 3.38219 | 19006 ft | 408 kts | 115° |
| 2026-05-06 20:01 | 48.85033 | 3.42148 | 19799 ft | 412 kts | 115° |
| 2026-05-06 20:01 | 48.83823 | 3.46123 | 20606 ft | 416 kts | 115° |
| 2026-05-06 20:01 | 48.82602 | 3.50124 | 21410 ft | 420 kts | 115° |
| 2026-05-06 20:01 | 48.81392 | 3.54198 | 22194 ft | 425 kts | 111° |
| 2026-05-06 20:02 | 48.80713 | 3.58550 | 22861 ft | 426 kts | 96° |
| 2026-05-06 20:02 | 48.80464 | 3.63026 | 23421 ft | 434 kts | 94° |
| 2026-05-06 20:02 | 48.80244 | 3.67631 | 24033 ft | 438 kts | 94° |
| 2026-05-06 20:02 | 48.80009 | 3.72241 | 24735 ft | 439 kts | 95° |
| 2026-05-06 20:03 | 48.79746 | 3.76862 | 25415 ft | 440 kts | 95° |
| 2026-05-06 20:03 | 48.79459 | 3.81499 | 26006 ft | 443 kts | 96° |
| 2026-05-06 20:03 | 48.79154 | 3.86177 | 26542 ft | 447 kts | 96° |
| 2026-05-06 20:03 | 48.78839 | 3.90888 | 27105 ft | 450 kts | 96° |
| 2026-05-06 20:04 | 48.78524 | 3.95568 | 27633 ft | 452 kts | 96° |
| 2026-05-06 20:04 | 48.78201 | 4.00332 | 28137 ft | 455 kts | 96° |
| 2026-05-06 20:04 | 48.77877 | 4.05128 | 28615 ft | 458 kts | 96° |
| 2026-05-06 20:04 | 48.77551 | 4.09950 | 29062 ft | 461 kts | 96° |
| 2026-05-06 20:05 | 48.76992 | 4.14729 | 29305 ft | 463 kts | 108° |
| 2026-05-06 20:05 | 48.75545 | 4.19083 | 29563 ft | 463 kts | 126° |
| 2026-05-06 20:05 | 48.73634 | 4.22953 | 29909 ft | 466 kts | 127° |
| 2026-05-06 20:05 | 48.71693 | 4.26917 | 30224 ft | 469 kts | 127° |
| 2026-05-06 20:06 | 48.69766 | 4.30915 | 30530 ft | 471 kts | 126° |
| 2026-05-06 20:06 | 48.67841 | 4.34958 | 30816 ft | 474 kts | 126° |
| 2026-05-06 20:06 | 48.65921 | 4.39020 | 31071 ft | 476 kts | 126° |
| 2026-05-06 20:06 | 48.63984 | 4.43127 | 31320 ft | 479 kts | 126° |
| 2026-05-06 20:07 | 48.62044 | 4.47239 | 31557 ft | 481 kts | 126° |
| 2026-05-06 20:07 | 48.60094 | 4.51367 | 31809 ft | 482 kts | 126° |
| 2026-05-06 20:07 | 48.58158 | 4.55454 | 32123 ft | 482 kts | 126° |
| 2026-05-06 20:07 | 48.56204 | 4.59573 | 32470 ft | 482 kts | 126° |
| 2026-05-06 20:08 | 48.54255 | 4.63673 | 32806 ft | 481 kts | 126° |
| 2026-05-06 20:08 | 48.52300 | 4.67779 | 33123 ft | 481 kts | 126° |
| 2026-05-06 20:08 | 48.50345 | 4.71879 | 33457 ft | 481 kts | 126° |
| 2026-05-06 20:08 | 48.48388 | 4.75977 | 33792 ft | 481 kts | 126° |
| 2026-05-06 20:09 | 48.46430 | 4.80069 | 34095 ft | 481 kts | 126° |
| 2026-05-06 20:09 | 48.44469 | 4.84163 | 34358 ft | 481 kts | 126° |
| 2026-05-06 20:09 | 48.42529 | 4.88206 | 34610 ft | 482 kts | 126° |
| 2026-05-06 20:09 | 48.40560 | 4.92302 | 34872 ft | 482 kts | 127° |
| 2026-05-06 20:10 | 48.38591 | 4.96393 | 35125 ft | 482 kts | 127° |
| 2026-05-06 20:10 | 48.36618 | 5.00485 | 35379 ft | 483 kts | 127° |
| 2026-05-06 20:10 | 48.34636 | 5.04592 | 35646 ft | 483 kts | 127° |
| 2026-05-06 20:10 | 48.32690 | 5.08621 | 35898 ft | 483 kts | 126° |
| 2026-05-06 20:11 | 48.30885 | 5.12891 | 36127 ft | 485 kts | 119° |
| 2026-05-06 20:11 | 48.29441 | 5.17482 | 36368 ft | 486 kts | 113° |
| 2026-05-06 20:11 | 48.28302 | 5.22290 | 36598 ft | 488 kts | 107° |
| 2026-05-06 20:11 | 48.27512 | 5.27204 | 36791 ft | 490 kts | 103° |
| 2026-05-06 20:12 | 48.26782 | 5.32269 | 37023 ft | 490 kts | 103° |
| 2026-05-06 20:12 | 48.26084 | 5.37228 | 37257 ft | 491 kts | 103° |
| 2026-05-06 20:12 | 48.25374 | 5.42244 | 37484 ft | 491 kts | 103° |
| 2026-05-06 20:12 | 48.24649 | 5.47270 | 37698 ft | 492 kts | 103° |
| 2026-05-06 20:13 | 48.23907 | 5.52305 | 37906 ft | 492 kts | 104° |
| 2026-05-06 20:13 | 48.23165 | 5.57255 | 38128 ft | 493 kts | 104° |
| 2026-05-06 20:13 | 48.22405 | 5.62275 | 38333 ft | 493 kts | 104° |
| 2026-05-06 20:13 | 48.21639 | 5.67311 | 38549 ft | 494 kts | 104° |
| 2026-05-06 20:14 | 48.20869 | 5.72343 | 38726 ft | 494 kts | 104° |
| 2026-05-06 20:14 | 48.20099 | 5.77375 | 38818 ft | 496 kts | 104° |
| 2026-05-06 20:14 | 48.18554 | 5.87424 | 38899 ft | 497 kts | 104° |
| 2026-05-06 20:15 | 48.16999 | 5.97492 | 38906 ft | 494 kts | 104° |
| 2026-05-06 20:15 | 48.15447 | 6.07468 | 38911 ft | 493 kts | 104° |
| 2026-05-06 20:16 | 48.13883 | 6.17465 | 38909 ft | 492 kts | 104° |
| 2026-05-06 20:16 | 48.12308 | 6.27466 | 38911 ft | 493 kts | 105° |
| 2026-05-06 20:17 | 48.10724 | 6.37457 | 38914 ft | 493 kts | 105° |
| 2026-05-06 20:17 | 48.09129 | 6.47464 | 38913 ft | 494 kts | 105° |
| 2026-05-06 20:18 | 48.07531 | 6.57433 | 38912 ft | 495 kts | 105° |
| 2026-05-06 20:18 | 48.05914 | 6.67445 | 38911 ft | 495 kts | 105° |
| 2026-05-06 20:19 | 48.04290 | 6.77454 | 38918 ft | 496 kts | 105° |
| 2026-05-06 20:19 | 48.02665 | 6.87406 | 38916 ft | 496 kts | 105° |
| 2026-05-06 20:20 | 48.01016 | 6.97440 | 38910 ft | 496 kts | 105° |
| 2026-05-06 20:20 | 47.99363 | 7.07444 | 38903 ft | 496 kts | 106° |
| 2026-05-06 20:21 | 47.97711 | 7.17381 | 38908 ft | 495 kts | 106° |
| 2026-05-06 20:21 | 47.96043 | 7.27355 | 38911 ft | 495 kts | 106° |
| 2026-05-06 20:22 | 47.94368 | 7.37313 | 38906 ft | 494 kts | 106° |
| 2026-05-06 20:22 | 47.92684 | 7.47260 | 38907 ft | 494 kts | 106° |
| 2026-05-06 20:23 | 47.91279 | 7.55523 | 38909 ft | 494 kts | 106° |
| 2026-05-06 20:23 | 47.88774 | 7.66762 | 38923 ft | 491 kts | 113° |
| 2026-05-06 20:24 | 47.86740 | 7.74668 | 38928 ft | 491 kts | 113° |
| 2026-05-06 20:24 | 47.84292 | 7.84187 | 38929 ft | 491 kts | 113° |
| 2026-05-06 20:25 | 47.81863 | 7.93717 | 38931 ft | 491 kts | 113° |
| 2026-05-06 20:25 | 47.79438 | 8.03233 | 38920 ft | 492 kts | 113° |
| 2026-05-06 20:26 | 47.77006 | 8.12743 | 38925 ft | 491 kts | 113° |
| 2026-05-06 20:26 | 47.74582 | 8.22169 | 38923 ft | 491 kts | 113° |
| 2026-05-06 20:27 | 47.72133 | 8.31648 | 38926 ft | 491 kts | 113° |
| 2026-05-06 20:27 | 47.69677 | 8.41117 | 38929 ft | 490 kts | 113° |
| 2026-05-06 20:28 | 47.67333 | 8.50584 | 38933 ft | 491 kts | 111° |
| 2026-05-06 20:28 | 47.65195 | 8.60242 | 38935 ft | 491 kts | 110° |
| 2026-05-06 20:29 | 47.63075 | 8.69806 | 38932 ft | 491 kts | 111° |
| 2026-05-06 20:29 | 47.60895 | 8.79408 | 38928 ft | 491 kts | 111° |
| 2026-05-06 20:30 | 47.57583 | 8.93774 | 38927 ft | 490 kts | 111° |
| 2026-05-06 20:31 | 47.55382 | 9.03274 | 38925 ft | 489 kts | 111° |
| 2026-05-06 20:31 | 47.53170 | 9.12788 | 38922 ft | 488 kts | 111° |
| 2026-05-06 20:32 | 47.50955 | 9.22272 | 38926 ft | 487 kts | 111° |
| 2026-05-06 20:32 | 47.48735 | 9.31734 | 38932 ft | 486 kts | 111° |
| 2026-05-06 20:33 | 47.46515 | 9.41156 | 38935 ft | 485 kts | 112° |
| 2026-05-06 20:33 | 47.44289 | 9.50559 | 38933 ft | 484 kts | 112° |
| 2026-05-06 20:34 | 47.42074 | 9.59880 | 38941 ft | 483 kts | 112° |
| 2026-05-06 20:34 | 47.40135 | 9.69397 | 38939 ft | 486 kts | 105° |
| 2026-05-06 20:35 | 47.38806 | 9.79196 | 38932 ft | 486 kts | 104° |
| 2026-05-06 20:35 | 47.37515 | 9.88947 | 38909 ft | 484 kts | 104° |
| 2026-05-06 20:36 | 47.36177 | 9.98706 | 38916 ft | 485 kts | 104° |
| 2026-05-06 20:36 | 47.34813 | 10.08413 | 38934 ft | 486 kts | 105° |
| 2026-05-06 20:37 | 47.33424 | 10.18202 | 38924 ft | 488 kts | 105° |
| 2026-05-06 20:37 | 47.32066 | 10.27730 | 38914 ft | 489 kts | 105° |
| 2026-05-06 20:38 | 47.30662 | 10.37526 | 38913 ft | 490 kts | 105° |
| 2026-05-06 20:38 | 47.29241 | 10.47381 | 38902 ft | 491 kts | 105° |
| 2026-05-06 20:39 | 47.27821 | 10.57163 | 38896 ft | 491 kts | 105° |
| 2026-05-06 20:39 | 47.26385 | 10.67009 | 38891 ft | 490 kts | 105° |
| 2026-05-06 20:40 | 47.24942 | 10.76825 | 38879 ft | 490 kts | 105° |
| 2026-05-06 20:40 | 47.23492 | 10.86630 | 38880 ft | 490 kts | 105° |
| 2026-05-06 20:41 | 47.22032 | 10.96431 | 38865 ft | 490 kts | 105° |
| 2026-05-06 20:41 | 47.20574 | 11.06156 | 38865 ft | 490 kts | 105° |
| 2026-05-06 20:42 | 47.19095 | 11.15971 | 38886 ft | 489 kts | 106° |
| 2026-05-06 20:42 | 47.17615 | 11.25728 | 38880 ft | 489 kts | 106° |
| 2026-05-06 20:43 | 47.16131 | 11.35435 | 38881 ft | 490 kts | 106° |
| 2026-05-06 20:43 | 47.14628 | 11.45216 | 38871 ft | 490 kts | 106° |
| 2026-05-06 20:44 | 47.13119 | 11.54989 | 38863 ft | 491 kts | 106° |
| 2026-05-06 20:44 | 47.11602 | 11.64738 | 38862 ft | 492 kts | 106° |
| 2026-05-06 20:45 | 47.10067 | 11.74543 | 38854 ft | 492 kts | 106° |
| 2026-05-06 20:45 | 47.08494 | 11.84249 | 38868 ft | 490 kts | 109° |
| 2026-05-06 20:46 | 47.06040 | 11.93532 | 38870 ft | 485 kts | 120° |
| 2026-05-06 20:46 | 47.03029 | 12.02399 | 38880 ft | 483 kts | 120° |
| 2026-05-06 20:47 | 47.00027 | 12.11205 | 38911 ft | 482 kts | 120° |
| 2026-05-06 20:47 | 46.97063 | 12.19968 | 38932 ft | 483 kts | 120° |
| 2026-05-06 20:48 | 46.94078 | 12.28810 | 38942 ft | 485 kts | 120° |
| 2026-05-06 20:48 | 46.91085 | 12.37656 | 38950 ft | 485 kts | 120° |
| 2026-05-06 20:49 | 46.88073 | 12.46517 | 38942 ft | 486 kts | 120° |
| 2026-05-06 20:49 | 46.85073 | 12.55313 | 38946 ft | 486 kts | 120° |
| 2026-05-06 20:50 | 46.82040 | 12.64171 | 38951 ft | 488 kts | 120° |
| 2026-05-06 20:50 | 46.79007 | 12.73008 | 38938 ft | 490 kts | 120° |
| 2026-05-06 20:51 | 46.75940 | 12.81914 | 38947 ft | 490 kts | 120° |
| 2026-05-06 20:51 | 46.72865 | 12.90804 | 38946 ft | 491 kts | 120° |
| 2026-05-06 20:52 | 46.69790 | 12.99665 | 38940 ft | 492 kts | 120° |
| 2026-05-06 20:52 | 46.66694 | 13.08560 | 38937 ft | 492 kts | 120° |
| 2026-05-06 20:53 | 46.63589 | 13.17452 | 38930 ft | 492 kts | 120° |
| 2026-05-06 20:53 | 46.60477 | 13.26326 | 38938 ft | 489 kts | 120° |
| 2026-05-06 20:54 | 46.57390 | 13.35105 | 38938 ft | 489 kts | 120° |
| 2026-05-06 20:54 | 46.54212 | 13.43836 | 38941 ft | 488 kts | 122° |
| 2026-05-06 20:55 | 46.50873 | 13.52366 | 38924 ft | 488 kts | 123° |
| 2026-05-06 20:55 | 46.47489 | 13.60936 | 38932 ft | 488 kts | 123° |
| 2026-05-06 20:56 | 46.44128 | 13.69499 | 38930 ft | 488 kts | 123° |
| 2026-05-06 20:56 | 46.40788 | 13.78027 | 38943 ft | 488 kts | 123° |
| 2026-05-06 20:56 | 46.39110 | 13.82304 | 39089 ft | 488 kts | 123° |
| 2026-05-06 20:57 | 46.37440 | 13.86558 | 39425 ft | 485 kts | 123° |
| 2026-05-06 20:57 | 46.35767 | 13.90811 | 39562 ft | 486 kts | 123° |
| 2026-05-06 20:57 | 46.34102 | 13.95034 | 39678 ft | 488 kts | 123° |
| 2026-05-06 20:57 | 46.32415 | 13.99304 | 39815 ft | 488 kts | 123° |
| 2026-05-06 20:58 | 46.30727 | 14.03572 | 40006 ft | 488 kts | 123° |
| 2026-05-06 20:58 | 46.29036 | 14.07837 | 40165 ft | 488 kts | 123° |
| 2026-05-06 20:58 | 46.27343 | 14.12105 | 40342 ft | 489 kts | 123° |
| 2026-05-06 20:58 | 46.25648 | 14.16370 | 40498 ft | 489 kts | 123° |
| 2026-05-06 20:59 | 46.23953 | 14.20630 | 40688 ft | 489 kts | 123° |
| 2026-05-06 20:59 | 46.22250 | 14.24901 | 40826 ft | 489 kts | 123° |
| 2026-05-06 20:59 | 46.20567 | 14.29119 | 40873 ft | 490 kts | 123° |
| 2026-05-06 21:00 | 46.17147 | 14.37664 | 40933 ft | 491 kts | 123° |
| 2026-05-06 21:00 | 46.13719 | 14.46199 | 40938 ft | 492 kts | 123° |
| 2026-05-06 21:01 | 46.10279 | 14.54743 | 40944 ft | 492 kts | 123° |
| 2026-05-06 21:01 | 46.06844 | 14.63249 | 40937 ft | 493 kts | 123° |
| 2026-05-06 21:02 | 46.03388 | 14.71778 | 40952 ft | 493 kts | 123° |
| 2026-05-06 21:02 | 45.99944 | 14.80252 | 40946 ft | 492 kts | 123° |
| 2026-05-06 21:03 | 45.96478 | 14.88752 | 40948 ft | 492 kts | 124° |
| 2026-05-06 21:03 | 45.93004 | 14.97246 | 40953 ft | 492 kts | 124° |
| 2026-05-06 21:04 | 45.89551 | 15.05661 | 40933 ft | 491 kts | 124° |
| 2026-05-06 21:04 | 45.86075 | 15.14108 | 40944 ft | 491 kts | 124° |
| 2026-05-06 21:05 | 45.82588 | 15.22552 | 40935 ft | 491 kts | 124° |
| 2026-05-06 21:05 | 45.79095 | 15.30987 | 40936 ft | 491 kts | 124° |
| 2026-05-06 21:06 | 45.75500 | 15.39216 | 40939 ft | 488 kts | 127° |
| 2026-05-06 21:06 | 45.71651 | 15.47223 | 40941 ft | 488 kts | 128° |
| 2026-05-06 21:07 | 45.67767 | 15.55204 | 40944 ft | 488 kts | 128° |
| 2026-05-06 21:07 | 45.63893 | 15.63182 | 40940 ft | 488 kts | 128° |
| 2026-05-06 21:08 | 45.60039 | 15.71131 | 40945 ft | 488 kts | 128° |
| 2026-05-06 21:08 | 45.56165 | 15.79110 | 40941 ft | 489 kts | 128° |
| 2026-05-06 21:09 | 45.52287 | 15.87073 | 40943 ft | 489 kts | 128° |
| 2026-05-06 21:09 | 45.49054 | 15.93694 | 40943 ft | 489 kts | 128° |
| 2026-05-06 21:10 | 45.44517 | 16.02956 | 40946 ft | 489 kts | 128° |
| 2026-05-06 21:10 | 45.41266 | 16.09575 | 40941 ft | 490 kts | 128° |
| 2026-05-06 21:11 | 45.37344 | 16.17539 | 40946 ft | 490 kts | 128° |
| 2026-05-06 21:11 | 45.33427 | 16.25471 | 40949 ft | 491 kts | 128° |
| 2026-05-06 21:12 | 45.29517 | 16.33369 | 40947 ft | 491 kts | 128° |
| 2026-05-06 21:12 | 45.25579 | 16.41299 | 40949 ft | 492 kts | 128° |
| 2026-05-06 21:13 | 45.21629 | 16.49230 | 40946 ft | 492 kts | 128° |
| 2026-05-06 21:13 | 45.17671 | 16.57158 | 40937 ft | 492 kts | 128° |
| 2026-05-06 21:14 | 45.13699 | 16.65091 | 40954 ft | 493 kts | 128° |
| 2026-05-06 21:14 | 45.09733 | 16.72989 | 40957 ft | 493 kts | 128° |
| 2026-05-06 21:15 | 45.05745 | 16.80911 | 40951 ft | 494 kts | 128° |
| 2026-05-06 21:15 | 45.01770 | 16.88784 | 40960 ft | 494 kts | 128° |
| 2026-05-06 21:16 | 44.97772 | 16.96680 | 40956 ft | 494 kts | 128° |
| 2026-05-06 21:16 | 44.93760 | 17.04579 | 40958 ft | 495 kts | 128° |
| 2026-05-06 21:17 | 44.89766 | 17.12427 | 40961 ft | 495 kts | 129° |
| 2026-05-06 21:17 | 44.85737 | 17.20320 | 40963 ft | 495 kts | 128° |
| 2026-05-06 21:18 | 44.81703 | 17.28203 | 40960 ft | 495 kts | 129° |
| 2026-05-06 21:18 | 44.77659 | 17.36083 | 40964 ft | 496 kts | 129° |
| 2026-05-06 21:19 | 44.73629 | 17.43913 | 40963 ft | 496 kts | 129° |
| 2026-05-06 21:19 | 44.69564 | 17.51789 | 40966 ft | 496 kts | 129° |
| 2026-05-06 21:20 | 44.65506 | 17.59630 | 40960 ft | 496 kts | 129° |
| 2026-05-06 21:20 | 44.61469 | 17.67411 | 40980 ft | 496 kts | 129° |
| 2026-05-06 21:21 | 44.57393 | 17.75245 | 40980 ft | 497 kts | 129° |
| 2026-05-06 21:21 | 44.53309 | 17.83071 | 40985 ft | 497 kts | 129° |
| 2026-05-06 21:22 | 44.49214 | 17.90901 | 40985 ft | 497 kts | 129° |
| 2026-05-06 21:22 | 44.45151 | 17.98646 | 40998 ft | 496 kts | 129° |
| 2026-05-06 21:23 | 44.41044 | 18.06454 | 41006 ft | 497 kts | 129° |
| 2026-05-06 21:23 | 44.36940 | 18.14235 | 41000 ft | 498 kts | 129° |
| 2026-05-06 21:24 | 44.32817 | 18.22031 | 41002 ft | 498 kts | 129° |
| 2026-05-06 21:24 | 44.28710 | 18.29778 | 41022 ft | 499 kts | 129° |
| 2026-05-06 21:25 | 44.24569 | 18.37566 | 41009 ft | 499 kts | 129° |
| 2026-05-06 21:25 | 44.20419 | 18.45350 | 41020 ft | 499 kts | 129° |
| 2026-05-06 21:26 | 44.16282 | 18.53091 | 41012 ft | 500 kts | 129° |
| 2026-05-06 21:26 | 44.12123 | 18.60852 | 41024 ft | 500 kts | 129° |
| 2026-05-06 21:27 | 44.07973 | 18.68575 | 41031 ft | 500 kts | 129° |
| 2026-05-06 21:27 | 44.03800 | 18.76317 | 41031 ft | 500 kts | 129° |
| 2026-05-06 21:28 | 43.99621 | 18.84051 | 41040 ft | 500 kts | 129° |
| 2026-05-06 21:28 | 43.95437 | 18.91780 | 41027 ft | 501 kts | 129° |
| 2026-05-06 21:29 | 43.91262 | 18.99468 | 41040 ft | 500 kts | 130° |
| 2026-05-06 21:29 | 43.87059 | 19.07185 | 41037 ft | 501 kts | 130° |
| 2026-05-06 21:30 | 43.82841 | 19.14909 | 41041 ft | 501 kts | 130° |
| 2026-05-06 21:30 | 43.78657 | 19.22551 | 41032 ft | 501 kts | 130° |
| 2026-05-06 21:31 | 43.74432 | 19.30249 | 41044 ft | 501 kts | 130° |
| 2026-05-06 21:31 | 43.70201 | 19.37938 | 41044 ft | 501 kts | 130° |
| 2026-05-06 21:32 | 43.65966 | 19.45612 | 41041 ft | 502 kts | 130° |
| 2026-05-06 21:32 | 43.59633 | 19.57052 | 41059 ft | 501 kts | 130° |
| 2026-05-06 21:33 | 43.55389 | 19.64694 | 41060 ft | 501 kts | 130° |
| 2026-05-06 21:33 | 43.51137 | 19.72332 | 41053 ft | 501 kts | 130° |
| 2026-05-06 21:34 | 43.46885 | 19.79948 | 41053 ft | 501 kts | 130° |
| 2026-05-06 21:34 | 43.42660 | 19.87497 | 41055 ft | 501 kts | 130° |
| 2026-05-06 21:35 | 43.38400 | 19.95086 | 41057 ft | 501 kts | 130° |
| 2026-05-06 21:35 | 43.34122 | 20.02689 | 41056 ft | 501 kts | 130° |
| 2026-05-06 21:36 | 43.29866 | 20.10233 | 41060 ft | 502 kts | 130° |
| 2026-05-06 21:36 | 43.25583 | 20.17806 | 41057 ft | 502 kts | 130° |
| 2026-05-06 21:37 | 43.21285 | 20.25387 | 41062 ft | 502 kts | 130° |
| 2026-05-06 21:37 | 43.17002 | 20.32922 | 41061 ft | 502 kts | 130° |
| 2026-05-06 21:38 | 43.12699 | 20.40470 | 41065 ft | 502 kts | 130° |
| 2026-05-06 21:38 | 43.08392 | 20.48003 | 41066 ft | 502 kts | 130° |
| 2026-05-06 21:39 | 43.04109 | 20.55476 | 41068 ft | 502 kts | 130° |
| 2026-05-06 21:39 | 42.99714 | 20.62912 | 41068 ft | 501 kts | 134° |
| 2026-05-06 21:40 | 42.94736 | 20.69584 | 41067 ft | 500 kts | 139° |
| 2026-05-06 21:40 | 42.89701 | 20.76053 | 41064 ft | 499 kts | 139° |
| 2026-05-06 21:41 | 42.84655 | 20.82569 | 41070 ft | 499 kts | 139° |
| 2026-05-06 21:41 | 42.79615 | 20.89115 | 41075 ft | 499 kts | 138° |
| 2026-05-06 21:42 | 42.74620 | 20.95604 | 41069 ft | 499 kts | 138° |
| 2026-05-06 21:42 | 42.69580 | 21.02132 | 41073 ft | 499 kts | 138° |
| 2026-05-06 21:43 | 42.64541 | 21.08641 | 41079 ft | 499 kts | 138° |
| 2026-05-06 21:43 | 42.59525 | 21.15102 | 41074 ft | 500 kts | 138° |
| 2026-05-06 21:44 | 42.54462 | 21.21610 | 41075 ft | 500 kts | 138° |
| 2026-05-06 21:44 | 42.49401 | 21.28100 | 41075 ft | 501 kts | 138° |
| 2026-05-06 21:45 | 42.44357 | 21.34554 | 41061 ft | 501 kts | 138° |
| 2026-05-06 21:45 | 42.39277 | 21.41039 | 41062 ft | 501 kts | 138° |
| 2026-05-06 21:46 | 42.34195 | 21.47509 | 41056 ft | 502 kts | 138° |
| 2026-05-06 21:46 | 42.29103 | 21.53975 | 41042 ft | 502 kts | 138° |
| 2026-05-06 21:47 | 42.24003 | 21.60438 | 41025 ft | 502 kts | 138° |
| 2026-05-06 21:47 | 42.18989 | 21.66926 | 41019 ft | 503 kts | 136° |
| 2026-05-06 21:48 | 42.14017 | 21.73577 | 41029 ft | 503 kts | 136° |
| 2026-05-06 21:48 | 42.09037 | 21.80225 | 41019 ft | 504 kts | 136° |
| 2026-05-06 21:49 | 42.04036 | 21.86845 | 41026 ft | 504 kts | 136° |
| 2026-05-06 21:49 | 41.99041 | 21.93422 | 41027 ft | 505 kts | 136° |
| 2026-05-06 21:50 | 41.94038 | 21.99994 | 41034 ft | 505 kts | 136° |
| 2026-05-06 21:50 | 41.88993 | 22.06605 | 41037 ft | 505 kts | 136° |
| 2026-05-06 21:51 | 41.83955 | 22.13195 | 41036 ft | 505 kts | 136° |
| 2026-05-06 21:51 | 41.78915 | 22.19771 | 41046 ft | 505 kts | 136° |
| 2026-05-06 21:52 | 41.73906 | 22.26292 | 41049 ft | 505 kts | 136° |
| 2026-05-06 21:52 | 41.68853 | 22.32854 | 41053 ft | 505 kts | 136° |
| 2026-05-06 21:53 | 41.63808 | 22.39392 | 41054 ft | 504 kts | 136° |
| 2026-05-06 21:53 | 41.58799 | 22.45866 | 41060 ft | 503 kts | 136° |
| 2026-05-06 21:54 | 41.53767 | 22.52357 | 41067 ft | 502 kts | 137° |
| 2026-05-06 21:54 | 41.48735 | 22.58832 | 41075 ft | 501 kts | 137° |
| 2026-05-06 21:55 | 41.43709 | 22.65284 | 41075 ft | 501 kts | 137° |
| 2026-05-06 21:55 | 41.38716 | 22.71675 | 41078 ft | 500 kts | 137° |
| 2026-05-06 21:56 | 41.33692 | 22.78102 | 41074 ft | 501 kts | 136° |
| 2026-05-06 21:56 | 41.29001 | 22.84967 | 41071 ft | 501 kts | 131° |
| 2026-05-06 21:57 | 41.24488 | 22.92037 | 41077 ft | 500 kts | 130° |
| 2026-05-06 21:57 | 41.19995 | 22.99050 | 41074 ft | 500 kts | 131° |
| 2026-05-06 21:58 | 41.15452 | 23.06062 | 41071 ft | 500 kts | 131° |
| 2026-05-06 21:58 | 41.10921 | 23.13012 | 41095 ft | 500 kts | 131° |
| 2026-05-06 21:59 | 41.07135 | 23.18806 | 41075 ft | 499 kts | 131° |
| 2026-05-06 21:59 | 41.02580 | 23.25760 | 41063 ft | 499 kts | 131° |
| 2026-05-06 22:00 | 40.98021 | 23.32710 | 41070 ft | 499 kts | 131° |
| 2026-05-06 22:00 | 40.93453 | 23.39659 | 41094 ft | 499 kts | 131° |
| 2026-05-06 22:01 | 40.88918 | 23.46543 | 41093 ft | 500 kts | 131° |
| 2026-05-06 22:01 | 40.84333 | 23.53484 | 41087 ft | 500 kts | 131° |
| 2026-05-06 22:02 | 40.79748 | 23.60412 | 41090 ft | 500 kts | 131° |
| 2026-05-06 22:02 | 40.75161 | 23.67325 | 41077 ft | 500 kts | 131° |
| 2026-05-06 22:03 | 40.70588 | 23.74201 | 41082 ft | 500 kts | 132° |
| 2026-05-06 22:03 | 40.65990 | 23.81099 | 41080 ft | 501 kts | 132° |
| 2026-05-06 22:04 | 40.61381 | 23.87997 | 41079 ft | 501 kts | 132° |
| 2026-05-06 22:04 | 40.56795 | 23.94845 | 41065 ft | 501 kts | 132° |
| 2026-05-06 22:05 | 40.52182 | 24.01721 | 41079 ft | 501 kts | 132° |
| 2026-05-06 22:05 | 40.47563 | 24.08590 | 41083 ft | 501 kts | 132° |
| 2026-05-06 22:06 | 40.42970 | 24.15402 | 41084 ft | 500 kts | 132° |
| 2026-05-06 22:06 | 40.38348 | 24.22246 | 41066 ft | 500 kts | 132° |
| 2026-05-06 22:07 | 40.33720 | 24.29081 | 41070 ft | 500 kts | 132° |
| 2026-05-06 22:07 | 40.29122 | 24.35855 | 41073 ft | 500 kts | 132° |
| 2026-05-06 22:08 | 40.24474 | 24.42687 | 41074 ft | 500 kts | 132° |
| 2026-05-06 22:08 | 40.19874 | 24.49438 | 41067 ft | 500 kts | 132° |
| 2026-05-06 22:09 | 40.15231 | 24.56234 | 41091 ft | 500 kts | 132° |
| 2026-05-06 22:09 | 40.10575 | 24.63035 | 41071 ft | 501 kts | 132° |
| 2026-05-06 22:10 | 40.05951 | 24.69774 | 41089 ft | 501 kts | 132° |
| 2026-05-06 22:10 | 40.01286 | 24.76557 | 41073 ft | 502 kts | 132° |
| 2026-05-06 22:11 | 39.96611 | 24.83339 | 41075 ft | 503 kts | 132° |
| 2026-05-06 22:11 | 39.92040 | 24.89955 | 41079 ft | 503 kts | 132° |
| 2026-05-06 22:12 | 39.87373 | 24.96698 | 41074 ft | 504 kts | 132° |
| 2026-05-06 22:12 | 39.82669 | 25.03478 | 41077 ft | 504 kts | 132° |
| 2026-05-06 22:13 | 39.77949 | 25.10265 | 41079 ft | 505 kts | 132° |
| 2026-05-06 22:13 | 39.73258 | 25.16998 | 41078 ft | 505 kts | 132° |
| 2026-05-06 22:14 | 39.68533 | 25.23763 | 41079 ft | 505 kts | 132° |
| 2026-05-06 22:14 | 39.63794 | 25.30533 | 41083 ft | 506 kts | 132° |
| 2026-05-06 22:15 | 39.59079 | 25.37255 | 41083 ft | 506 kts | 133° |
| 2026-05-06 22:15 | 39.54326 | 25.44016 | 41085 ft | 506 kts | 132° |
| 2026-05-06 22:16 | 39.49606 | 25.50714 | 41083 ft | 506 kts | 133° |
| 2026-05-06 22:16 | 39.44849 | 25.57452 | 41087 ft | 506 kts | 133° |
| 2026-05-06 22:17 | 39.40088 | 25.64180 | 41086 ft | 506 kts | 133° |
| 2026-05-06 22:17 | 39.35316 | 25.70908 | 41088 ft | 507 kts | 133° |
| 2026-05-06 22:18 | 39.30546 | 25.77620 | 41089 ft | 507 kts | 133° |
| 2026-05-06 22:18 | 39.25798 | 25.84285 | 41090 ft | 507 kts | 133° |
| 2026-05-06 22:19 | 39.21006 | 25.90998 | 41095 ft | 508 kts | 133° |
| 2026-05-06 22:19 | 39.16236 | 25.97666 | 41095 ft | 508 kts | 133° |
| 2026-05-06 22:20 | 39.11423 | 26.04378 | 41094 ft | 508 kts | 133° |
| 2026-05-06 22:20 | 39.06605 | 26.11084 | 41096 ft | 509 kts | 133° |
| 2026-05-06 22:21 | 39.01822 | 26.17725 | 41095 ft | 509 kts | 133° |
| 2026-05-06 22:21 | 38.96999 | 26.24407 | 41097 ft | 509 kts | 133° |
| 2026-05-06 22:22 | 38.92194 | 26.31047 | 41099 ft | 509 kts | 133° |
| 2026-05-06 22:22 | 38.87368 | 26.37714 | 41101 ft | 509 kts | 131° |
| 2026-05-06 22:23 | 38.85221 | 26.41323 | 41105 ft | 508 kts | 120° |
| 2026-05-06 22:23 | 38.83598 | 26.45333 | 41109 ft | 507 kts | 111° |
| 2026-05-06 22:23 | 38.81799 | 26.54014 | 41103 ft | 501 kts | 96° |
| 2026-05-06 22:24 | 38.80845 | 26.62836 | 41104 ft | 502 kts | 95° |
| 2026-05-06 22:24 | 38.79825 | 26.71728 | 41103 ft | 504 kts | 96° |
| 2026-05-06 22:25 | 38.78722 | 26.80559 | 41101 ft | 504 kts | 96° |
| 2026-05-06 22:25 | 38.77601 | 26.89439 | 41102 ft | 505 kts | 98° |
| 2026-05-06 22:26 | 38.75396 | 26.98000 | 41109 ft | 509 kts | 114° |
| 2026-05-06 22:26 | 38.71597 | 27.05645 | 41102 ft | 511 kts | 126° |
| 2026-05-06 22:27 | 38.67230 | 27.12850 | 41103 ft | 511 kts | 127° |
| 2026-05-06 22:27 | 38.62917 | 27.20016 | 41102 ft | 511 kts | 126° |
| 2026-05-06 22:28 | 38.58618 | 27.27278 | 41106 ft | 511 kts | 126° |
| 2026-05-06 22:28 | 38.54325 | 27.34535 | 41105 ft | 511 kts | 126° |
| 2026-05-06 22:29 | 38.50023 | 27.41784 | 41102 ft | 511 kts | 126° |
| 2026-05-06 22:29 | 38.45725 | 27.49011 | 41108 ft | 511 kts | 126° |
| 2026-05-06 22:30 | 38.41450 | 27.56181 | 41114 ft | 510 kts | 126° |
| 2026-05-06 22:30 | 38.37137 | 27.63393 | 41118 ft | 511 kts | 127° |
| 2026-05-06 22:31 | 38.32823 | 27.70589 | 41115 ft | 511 kts | 127° |
| 2026-05-06 22:31 | 38.28502 | 27.77781 | 41106 ft | 510 kts | 127° |
| 2026-05-06 22:32 | 38.24205 | 27.84928 | 41117 ft | 511 kts | 127° |
| 2026-05-06 22:32 | 38.19887 | 27.92113 | 41119 ft | 511 kts | 127° |
| 2026-05-06 22:33 | 38.15555 | 27.99300 | 41136 ft | 511 kts | 127° |
| 2026-05-06 22:33 | 38.11256 | 28.06412 | 41123 ft | 511 kts | 127° |
| 2026-05-06 22:34 | 38.06916 | 28.13576 | 41073 ft | 509 kts | 127° |
| 2026-05-06 22:34 | 38.02588 | 28.20704 | 41120 ft | 509 kts | 127° |
| 2026-05-06 22:35 | 37.98271 | 28.27798 | 41123 ft | 510 kts | 127° |
| 2026-05-06 22:35 | 37.93929 | 28.34918 | 41132 ft | 509 kts | 127° |
| 2026-05-06 22:36 | 37.89610 | 28.41983 | 41120 ft | 510 kts | 127° |
| 2026-05-06 22:36 | 37.85248 | 28.49104 | 41143 ft | 510 kts | 127° |
| 2026-05-06 22:37 | 37.80914 | 28.56161 | 41141 ft | 510 kts | 127° |
| 2026-05-06 22:37 | 37.76548 | 28.63255 | 41130 ft | 510 kts | 127° |
| 2026-05-06 22:38 | 37.72359 | 28.70501 | 41147 ft | 510 kts | 121° |
| 2026-05-06 22:38 | 37.69141 | 28.78412 | 41159 ft | 509 kts | 112° |
| 2026-05-06 22:39 | 37.66256 | 28.86573 | 41160 ft | 510 kts | 112° |
| 2026-05-06 22:39 | 37.63331 | 28.94741 | 41150 ft | 510 kts | 113° |
| 2026-05-06 22:40 | 37.60367 | 29.02877 | 41149 ft | 510 kts | 113° |
| 2026-05-06 22:40 | 37.57385 | 29.11006 | 41154 ft | 511 kts | 113° |
| 2026-05-06 22:41 | 37.52911 | 29.23171 | 41180 ft | 512 kts | 114° |
| 2026-05-06 22:42 | 37.49912 | 29.31300 | 41159 ft | 511 kts | 114° |
| 2026-05-06 22:42 | 37.46905 | 29.39433 | 41165 ft | 511 kts | 114° |
| 2026-05-06 22:43 | 37.43864 | 29.47541 | 41164 ft | 512 kts | 115° |
| 2026-05-06 22:43 | 37.40766 | 29.55558 | 41172 ft | 512 kts | 115° |
| 2026-05-06 22:44 | 37.37650 | 29.63628 | 41172 ft | 512 kts | 115° |
| 2026-05-06 22:44 | 37.33934 | 29.71251 | 41193 ft | 512 kts | 130° |
| 2026-05-06 22:45 | 37.28796 | 29.77307 | 41163 ft | 509 kts | 146° |
| 2026-05-06 22:45 | 37.22900 | 29.82263 | 41169 ft | 510 kts | 148° |
| 2026-05-06 22:46 | 37.16997 | 29.87224 | 41163 ft | 511 kts | 147° |
| 2026-05-06 22:46 | 37.12120 | 29.91423 | 41159 ft | 511 kts | 147° |
| 2026-05-06 22:47 | 37.06239 | 29.96474 | 41160 ft | 511 kts | 147° |
| 2026-05-06 22:47 | 36.99394 | 30.02304 | 41154 ft | 512 kts | 147° |
| 2026-05-06 22:48 | 36.94487 | 30.06474 | 41171 ft | 511 kts | 147° |
| 2026-05-06 22:48 | 36.88601 | 30.11469 | 41164 ft | 511 kts | 147° |
| 2026-05-06 22:49 | 36.82711 | 30.16465 | 41159 ft | 511 kts | 147° |
| 2026-05-06 22:49 | 36.76830 | 30.21462 | 41148 ft | 511 kts | 147° |
| 2026-05-06 22:50 | 36.70953 | 30.26447 | 41147 ft | 510 kts | 147° |
| 2026-05-06 22:50 | 36.65117 | 30.31383 | 41137 ft | 509 kts | 147° |
| 2026-05-06 22:51 | 36.59243 | 30.36338 | 41125 ft | 509 kts | 148° |
| 2026-05-06 22:51 | 36.53404 | 30.41254 | 41112 ft | 509 kts | 148° |
| 2026-05-06 22:52 | 36.47542 | 30.46182 | 41113 ft | 508 kts | 148° |
| 2026-05-06 22:52 | 36.41682 | 30.51098 | 41105 ft | 508 kts | 148° |
| 2026-05-06 22:53 | 36.35816 | 30.56011 | 41106 ft | 508 kts | 148° |
| 2026-05-06 22:53 | 36.29959 | 30.60906 | 41101 ft | 508 kts | 148° |
| 2026-05-06 22:54 | 36.24125 | 30.65773 | 41101 ft | 507 kts | 148° |
| 2026-05-06 22:54 | 36.18263 | 30.70653 | 41104 ft | 508 kts | 148° |
| 2026-05-06 22:55 | 36.12391 | 30.75532 | 41101 ft | 508 kts | 148° |
| 2026-05-06 22:55 | 36.06549 | 30.80378 | 41105 ft | 508 kts | 148° |
| 2026-05-06 22:56 | 36.00831 | 30.85511 | 41102 ft | 509 kts | 143° |
| 2026-05-06 22:56 | 35.95310 | 30.91008 | 41103 ft | 510 kts | 143° |
| 2026-05-06 22:57 | 35.89798 | 30.96519 | 41102 ft | 510 kts | 143° |
| 2026-05-06 22:57 | 35.84249 | 31.02006 | 41101 ft | 510 kts | 143° |
| 2026-05-06 22:58 | 35.78739 | 31.07416 | 41103 ft | 510 kts | 143° |
| 2026-05-06 22:58 | 35.73174 | 31.12865 | 41102 ft | 510 kts | 143° |
| 2026-05-06 22:59 | 35.67607 | 31.18310 | 41102 ft | 510 kts | 144° |
| 2026-05-06 22:59 | 35.62043 | 31.23744 | 41103 ft | 510 kts | 144° |
| 2026-05-06 23:00 | 35.56511 | 31.29137 | 41102 ft | 510 kts | 144° |
| 2026-05-06 23:00 | 35.50946 | 31.34552 | 41102 ft | 510 kts | 144° |
| 2026-05-06 23:01 | 35.45371 | 31.39966 | 41101 ft | 510 kts | 144° |
| 2026-05-06 23:01 | 35.39788 | 31.45379 | 41104 ft | 510 kts | 144° |
| 2026-05-06 23:02 | 35.34249 | 31.50740 | 41099 ft | 510 kts | 144° |
| 2026-05-06 23:02 | 35.28673 | 31.56126 | 41098 ft | 510 kts | 144° |
| 2026-05-06 23:03 | 35.23095 | 31.61504 | 41103 ft | 509 kts | 144° |
| 2026-05-06 23:03 | 35.17513 | 31.66877 | 41107 ft | 509 kts | 144° |
| 2026-05-06 23:04 | 35.11978 | 31.72196 | 41100 ft | 509 kts | 144° |
| 2026-05-06 23:04 | 35.06403 | 31.77542 | 41104 ft | 509 kts | 144° |
| 2026-05-06 23:05 | 35.00818 | 31.82889 | 41100 ft | 509 kts | 144° |
| 2026-05-06 23:05 | 34.95280 | 31.88181 | 41101 ft | 508 kts | 144° |
| 2026-05-06 23:06 | 34.89709 | 31.93496 | 41103 ft | 508 kts | 144° |
| 2026-05-06 23:06 | 34.84137 | 31.98802 | 41104 ft | 508 kts | 144° |
| 2026-05-06 23:07 | 34.78565 | 32.04098 | 41101 ft | 508 kts | 145° |
| 2026-05-06 23:07 | 34.73002 | 32.09377 | 41099 ft | 507 kts | 145° |
| 2026-05-06 23:08 | 34.67468 | 32.14620 | 41099 ft | 507 kts | 145° |
| 2026-05-06 23:08 | 34.61905 | 32.19880 | 41098 ft | 506 kts | 145° |
| 2026-05-06 23:09 | 34.56343 | 32.25130 | 41095 ft | 506 kts | 145° |
| 2026-05-06 23:09 | 34.50787 | 32.30365 | 41099 ft | 505 kts | 145° |
| 2026-05-06 23:10 | 34.45260 | 32.35564 | 41107 ft | 505 kts | 145° |
| 2026-05-06 23:10 | 34.39714 | 32.40771 | 41087 ft | 504 kts | 145° |
| 2026-05-06 23:11 | 34.34168 | 32.45970 | 41082 ft | 503 kts | 145° |
| 2026-05-06 23:11 | 34.28623 | 32.51158 | 41094 ft | 503 kts | 146° |
| 2026-05-06 23:12 | 34.23085 | 32.56330 | 41094 ft | 502 kts | 146° |
| 2026-05-06 23:12 | 34.17592 | 32.61449 | 41091 ft | 502 kts | 146° |
| 2026-05-06 23:13 | 34.12058 | 32.66598 | 41093 ft | 501 kts | 146° |
| 2026-05-06 23:13 | 34.06432 | 32.71554 | 41098 ft | 498 kts | 151° |
| 2026-05-06 23:14 | 34.00586 | 32.75925 | 41098 ft | 497 kts | 152° |
| 2026-05-06 23:14 | 33.94675 | 32.80266 | 41099 ft | 497 kts | 152° |
| 2026-05-06 23:15 | 33.88769 | 32.84630 | 41097 ft | 497 kts | 152° |
| 2026-05-06 23:15 | 33.82915 | 32.88977 | 41099 ft | 496 kts | 152° |
| 2026-05-06 23:16 | 33.77031 | 32.93347 | 41099 ft | 496 kts | 152° |
| 2026-05-06 23:16 | 33.71150 | 32.97704 | 41099 ft | 496 kts | 152° |
| 2026-05-06 23:17 | 33.65316 | 33.02017 | 41093 ft | 495 kts | 152° |
| 2026-05-06 23:17 | 33.59435 | 33.06358 | 41099 ft | 495 kts | 152° |
| 2026-05-06 23:18 | 33.53571 | 33.10680 | 41064 ft | 494 kts | 152° |
| 2026-05-06 23:18 | 33.50618 | 33.12853 | 40520 ft | 500 kts | 152° |
| 2026-05-06 23:18 | 33.47691 | 33.15005 | 39928 ft | 498 kts | 152° |
| 2026-05-06 23:18 | 33.44736 | 33.17177 | 39312 ft | 497 kts | 152° |
| 2026-05-06 23:19 | 33.41790 | 33.19341 | 38604 ft | 497 kts | 153° |
| 2026-05-06 23:19 | 33.38832 | 33.21512 | 37799 ft | 497 kts | 153° |
| 2026-05-06 23:19 | 33.35887 | 33.23671 | 37064 ft | 495 kts | 153° |
| 2026-05-06 23:19 | 33.32952 | 33.25822 | 36329 ft | 494 kts | 153° |
| 2026-05-06 23:20 | 33.30025 | 33.27965 | 35560 ft | 494 kts | 152° |
| 2026-05-06 23:20 | 33.27084 | 33.30114 | 34702 ft | 497 kts | 152° |
| 2026-05-06 23:20 | 33.24120 | 33.32278 | 33749 ft | 500 kts | 152° |
| 2026-05-06 23:20 | 33.21168 | 33.34430 | 32720 ft | 504 kts | 152° |
| 2026-05-06 23:21 | 33.18165 | 33.36619 | 31688 ft | 507 kts | 152° |
| 2026-05-06 23:21 | 33.15140 | 33.38823 | 30630 ft | 510 kts | 152° |
| 2026-05-06 23:21 | 33.12105 | 33.41034 | 29778 ft | 509 kts | 152° |
| 2026-05-06 23:21 | 33.09097 | 33.43226 | 28914 ft | 506 kts | 152° |
| 2026-05-06 23:22 | 33.06106 | 33.45404 | 28114 ft | 502 kts | 152° |
| 2026-05-06 23:22 | 33.03170 | 33.47539 | 27350 ft | 498 kts | 152° |
| 2026-05-06 23:22 | 33.00216 | 33.49684 | 26568 ft | 494 kts | 152° |
| 2026-05-06 23:22 | 32.97285 | 33.51810 | 25795 ft | 491 kts | 152° |
| 2026-05-06 23:23 | 32.94373 | 33.53918 | 25040 ft | 488 kts | 152° |
| 2026-05-06 23:23 | 32.91481 | 33.56011 | 24272 ft | 485 kts | 152° |
| 2026-05-06 23:23 | 32.88593 | 33.58100 | 23471 ft | 483 kts | 152° |
| 2026-05-06 23:23 | 32.85732 | 33.60174 | 22598 ft | 480 kts | 150° |
| 2026-05-06 23:24 | 32.82996 | 33.62422 | 21836 ft | 477 kts | 145° |
| 2026-05-06 23:24 | 32.80485 | 33.64913 | 21097 ft | 474 kts | 139° |
| 2026-05-06 23:24 | 32.78185 | 33.67689 | 20384 ft | 469 kts | 135° |
| 2026-05-06 23:24 | 32.75980 | 33.70473 | 19665 ft | 450 kts | 135° |
| 2026-05-06 23:25 | 32.73879 | 33.73122 | 18946 ft | 428 kts | 136° |
| 2026-05-06 23:25 | 32.71868 | 33.75639 | 18215 ft | 413 kts | 136° |
| 2026-05-06 23:25 | 32.69866 | 33.78119 | 17498 ft | 420 kts | 136° |
| 2026-05-06 23:25 | 32.67815 | 33.80642 | 16808 ft | 425 kts | 136° |
| 2026-05-06 23:26 | 32.65767 | 33.83159 | 16124 ft | 422 kts | 136° |
| 2026-05-06 23:26 | 32.63757 | 33.85629 | 15465 ft | 419 kts | 136° |
| 2026-05-06 23:26 | 32.61735 | 33.88113 | 14806 ft | 416 kts | 136° |
| 2026-05-06 23:26 | 32.59726 | 33.90579 | 14178 ft | 413 kts | 136° |
| 2026-05-06 23:27 | 32.57729 | 33.93032 | 13527 ft | 411 kts | 136° |
| 2026-05-06 23:27 | 32.55754 | 33.95457 | 12936 ft | 405 kts | 135° |
| 2026-05-06 23:27 | 32.53833 | 33.97845 | 12616 ft | 394 kts | 135° |
| 2026-05-06 23:27 | 32.51959 | 34.00190 | 12324 ft | 391 kts | 135° |
| 2026-05-06 23:28 | 32.50114 | 34.02497 | 12034 ft | 391 kts | 135° |
| 2026-05-06 23:28 | 32.48240 | 34.04835 | 11745 ft | 391 kts | 135° |
| 2026-05-06 23:28 | 32.46365 | 34.07170 | 11462 ft | 389 kts | 135° |
| 2026-05-06 23:28 | 32.44527 | 34.09458 | 11160 ft | 376 kts | 135° |
| 2026-05-06 23:29 | 32.42807 | 34.11615 | 10873 ft | 344 kts | 133° |
| 2026-05-06 23:29 | 32.41388 | 34.13779 | 10624 ft | 327 kts | 125° |
| 2026-05-06 23:29 | 32.40154 | 34.16006 | 10400 ft | 319 kts | 123° |
| 2026-05-06 23:29 | 32.38971 | 34.18194 | 10164 ft | 312 kts | 123° |
| 2026-05-06 23:30 | 32.37796 | 34.20330 | 9920 ft | 305 kts | 124° |
| 2026-05-06 23:30 | 32.36630 | 34.22407 | 9679 ft | 299 kts | 124° |
| 2026-05-06 23:30 | 32.35497 | 34.24398 | 9455 ft | 292 kts | 124° |
| 2026-05-06 23:30 | 32.34366 | 34.26375 | 9233 ft | 287 kts | 124° |
| 2026-05-06 23:31 | 32.33252 | 34.28319 | 9023 ft | 285 kts | 124° |
| 2026-05-06 23:31 | 32.32137 | 34.30260 | 8802 ft | 285 kts | 124° |
| 2026-05-06 23:31 | 32.31022 | 34.32198 | 8570 ft | 285 kts | 124° |
| 2026-05-06 23:31 | 32.29909 | 34.34129 | 8364 ft | 284 kts | 124° |
| 2026-05-06 23:32 | 32.28797 | 34.36057 | 8137 ft | 283 kts | 124° |
| 2026-05-06 23:32 | 32.27690 | 34.37975 | 7912 ft | 282 kts | 124° |
| 2026-05-06 23:32 | 32.26588 | 34.39885 | 7689 ft | 281 kts | 124° |
| 2026-05-06 23:32 | 32.25487 | 34.41793 | 7475 ft | 279 kts | 124° |
| 2026-05-06 23:33 | 32.24396 | 34.43683 | 7248 ft | 277 kts | 124° |
| 2026-05-06 23:33 | 32.23325 | 34.45537 | 7029 ft | 275 kts | 124° |
| 2026-05-06 23:33 | 32.22256 | 34.47382 | 6714 ft | 268 kts | 123° |
| 2026-05-06 23:33 | 32.21221 | 34.49164 | 6324 ft | 258 kts | 123° |
| 2026-05-06 23:34 | 32.20222 | 34.50885 | 5942 ft | 250 kts | 123° |
| 2026-05-06 23:34 | 32.19574 | 34.52001 | 5682 ft | 247 kts | 123° |
| 2026-05-06 23:34 | 32.18601 | 34.53677 | 5306 ft | 247 kts | 123° |
| 2026-05-06 23:34 | 32.17319 | 34.55883 | 5004 ft | 241 kts | 124° |
| 2026-05-06 23:35 | 32.16671 | 34.57000 | 5028 ft | 248 kts | 124° |
| 2026-05-06 23:35 | 32.15721 | 34.58746 | 4845 ft | 261 kts | 120° |
| 2026-05-06 23:35 | 32.14501 | 34.61185 | 4473 ft | 258 kts | 120° |
| 2026-05-06 23:35 | 32.13887 | 34.62411 | 4291 ft | 256 kts | 120° |
| 2026-05-06 23:36 | 32.12979 | 34.64206 | 4021 ft | 253 kts | 121° |
| 2026-05-06 23:36 | 32.12032 | 34.65912 | 3780 ft | 250 kts | 122° |
| 2026-05-06 23:36 | 32.11103 | 34.67643 | 3517 ft | 246 kts | 120° |
| 2026-05-06 23:36 | 32.10242 | 34.69324 | 3216 ft | 232 kts | 119° |
| 2026-05-06 23:37 | 32.09455 | 34.70871 | 3061 ft | 205 kts | 119° |
| 2026-05-06 23:37 | 32.08756 | 34.72245 | 2963 ft | 187 kts | 118° |
| 2026-05-06 23:37 | 32.08093 | 34.73549 | 2757 ft | 180 kts | 119° |
| 2026-05-06 23:37 | 32.07478 | 34.74754 | 2499 ft | 164 kts | 118° |
| 2026-05-06 23:38 | 32.06912 | 34.75865 | 2278 ft | 153 kts | 118° |
| 2026-05-06 23:38 | 32.06362 | 34.76944 | 2072 ft | 154 kts | 118° |
| 2026-05-06 23:38 | 32.05822 | 34.78002 | 1856 ft | 152 kts | 118° |
| 2026-05-06 23:38 | 32.05281 | 34.79063 | 1652 ft | 150 kts | 118° |
| 2026-05-06 23:39 | 32.04745 | 34.80115 | 1436 ft | 149 kts | 118° |
| 2026-05-06 23:39 | 32.04205 | 34.81165 | 1290 ft | 151 kts | 119° |
| 2026-05-06 23:39 | 32.03685 | 34.82244 | 1111 ft | 152 kts | 117° |
| 2026-05-06 23:39 | 32.03170 | 34.83320 | 931 ft | 148 kts | 118° |
| 2026-05-06 23:40 | 32.02628 | 34.84332 | 685 ft | 147 kts | 122° |
| 2026-05-06 23:40 | 32.02095 | 34.85358 | 464 ft | 146 kts | 119° |
| 2026-05-06 23:40 | 32.01579 | 34.86382 | 244 ft | 144 kts | 121° |
| 2026-05-06 23:40 | 32.01071 | 34.87357 | 120 ft | 126 kts | 122° |
| 2026-05-06 23:41 | 32.00692 | 34.88078 | 127 ft | 77 kts | 121° |
| 2026-05-06 23:41 | 32.00486 | 34.88469 | 140 ft | 28 kts | 126° |
| 2026-05-06 23:41 | 32.00337 | 34.88617 | 142 ft | 28 kts | 149° |
| 2026-05-06 23:41 | 32.00285 | 34.88650 | 142 ft | 0 kts | 152° |
| 2026-05-06 23:42 | 32.00283 | 34.88652 | 142 ft | 3 kts | 152° |
| 2026-05-06 23:42 | 32.00244 | 34.88666 | 142 ft | 8 kts | 181° |
| 2026-05-06 23:43 | 32.00208 | 34.88610 | 141 ft | 11 kts | 274° |
| 2026-05-06 23:43 | 32.00246 | 34.88506 | 140 ft | 16 kts | 300° |
| 2026-05-06 23:43 | 32.00314 | 34.88375 | 138 ft | 21 kts | 302° |
| 2026-05-06 23:43 | 32.00399 | 34.88212 | 133 ft | 25 kts | 302° |
| 2026-05-06 23:44 | 32.00485 | 34.88046 | 130 ft | 20 kts | 301° |
| 2026-05-06 23:44 | 32.00494 | 34.87957 | 125 ft | 8 kts | 229° |
| 2026-05-06 23:44 | 32.00448 | 34.87919 | 127 ft | 8 kts | 211° |
| 2026-05-06 23:44 | 32.00399 | 34.87881 | 130 ft | 9 kts | 213° |
| 2026-05-06 23:45 | 32.00348 | 34.87835 | 126 ft | 10 kts | 234° |
| 2026-05-06 23:45 | 32.00336 | 34.87755 | 125 ft | 11 kts | 252° |
| 2026-05-06 23:45 | 32.00282 | 34.87696 | 125 ft | 10 kts | 212° |
| 2026-05-06 23:45 | 32.00236 | 34.87662 | 128 ft | 7 kts | 212° |
| 2026-05-06 23:46 | 32.00194 | 34.87632 | 132 ft | 7 kts | 212° |
| 2026-05-06 23:46 | 32.00154 | 34.87580 | 128 ft | 16 kts | 247° |
| 2026-05-06 23:46 | 32.00150 | 34.87491 | 125 ft | 0 kts | 285° |